sensor_id;sensor_type;location;lat;lon;timestamp;pressure;altitude;pressure_sealevel;temperature
61595;BMP280;47397;48.194;11.632;2022-11-20T00:00:49;95403.72;;;6.03
61595;BMP280;47397;48.194;11.632;2022-11-20T00:01:49;95401.97;;;6.07
61595;BMP280;47397;48.194;11.632;2022-11-20T00:02:49;95409.63;;;6.02
61595;BMP280;47397;48.194;11.632;2022-11-20T00:03:51;95402.97;;;5.97
61595;BMP280;47397;48.194;11.632;2022-11-20T00:04:52;95407.13;;;5.99
61595;BMP280;47397;48.194;11.632;2022-11-20T00:05:52;95405.38;;;6.04
61595;BMP280;47397;48.194;11.632;2022-11-20T00:06:53;95401.25;;;6.00
61595;BMP280;47397;48.194;11.632;2022-11-20T00:07:54;95404.63;;;5.98
61595;BMP280;47397;48.194;11.632;2022-11-20T00:08:55;95396.97;;;6.05
61595;BMP280;47397;48.194;11.632;2022-11-20T00:09:56;95397.00;;;6.02
61595;BMP280;47397;48.194;11.632;2022-11-20T00:10:56;95399.47;;;6.07
61595;BMP280;47397;48.194;11.632;2022-11-20T00:11:57;95401.00;;;6.15
61595;BMP280;47397;48.194;11.632;2022-11-20T00:12:57;95404.53;;;6.05
61595;BMP280;47397;48.194;11.632;2022-11-20T00:14:00;95401.28;;;5.94
61595;BMP280;47397;48.194;11.632;2022-11-20T00:15:00;95408.75;;;6.03
61595;BMP280;47397;48.194;11.632;2022-11-20T00:16:04;95408.75;;;6.03
61595;BMP280;47397;48.194;11.632;2022-11-20T00:17:05;95400.41;;;6.00
61595;BMP280;47397;48.194;11.632;2022-11-20T00:18:05;95407.03;;;6.05
61595;BMP280;47397;48.194;11.632;2022-11-20T00:19:06;95410.44;;;6.03
61595;BMP280;47397;48.194;11.632;2022-11-20T00:20:07;95408.00;;;5.98
61595;BMP280;47397;48.194;11.632;2022-11-20T00:21:11;95402.84;;;6.04
61595;BMP280;47397;48.194;11.632;2022-11-20T00:22:11;95407.06;;;6.04
61595;BMP280;47397;48.194;11.632;2022-11-20T00:23:12;95410.41;;;6.06
61595;BMP280;47397;48.194;11.632;2022-11-20T00:24:13;95410.34;;;6.09
61595;BMP280;47397;48.194;11.632;2022-11-20T00:25:13;95401.16;;;6.06
61595;BMP280;47397;48.194;11.632;2022-11-20T00:26:16;95407.94;;;6.03
61595;BMP280;47397;48.194;11.632;2022-11-20T00:27:17;95413.84;;;6.00
61595;BMP280;47397;48.194;11.632;2022-11-20T00:28:17;95413.81;;;6.03
61595;BMP280;47397;48.194;11.632;2022-11-20T00:29:17;95405.44;;;6.00
61595;BMP280;47397;48.194;11.632;2022-11-20T00:30:18;95406.22;;;6.05
61595;BMP280;47397;48.194;11.632;2022-11-20T00:31:21;95407.94;;;6.01
61595;BMP280;47397;48.194;11.632;2022-11-20T00:32:21;95416.44;;;5.94
61595;BMP280;47397;48.194;11.632;2022-11-20T00:33:22;95408.81;;;6.00
61595;BMP280;47397;48.194;11.632;2022-11-20T00:34:22;95411.31;;;6.00
61595;BMP280;47397;48.194;11.632;2022-11-20T00:35:23;95411.38;;;5.97
61595;BMP280;47397;48.194;11.632;2022-11-20T00:36:25;95414.56;;;6.08
61595;BMP280;47397;48.194;11.632;2022-11-20T00:37:26;95420.50;;;6.06
61595;BMP280;47397;48.194;11.632;2022-11-20T00:38:26;95416.28;;;6.06
61595;BMP280;47397;48.194;11.632;2022-11-20T00:39:27;95412.88;;;6.09
61595;BMP280;47397;48.194;11.632;2022-11-20T00:40:27;95424.56;;;6.16
61595;BMP280;47397;48.194;11.632;2022-11-20T00:41:29;95419.47;;;6.17
61595;BMP280;47397;48.194;11.632;2022-11-20T00:42:29;95415.41;;;6.09
61595;BMP280;47397;48.194;11.632;2022-11-20T00:43:29;95427.94;;;6.13
61595;BMP280;47397;48.194;11.632;2022-11-20T00:44:30;95419.50;;;6.16
61595;BMP280;47397;48.194;11.632;2022-11-20T00:45:30;95420.44;;;6.09
61595;BMP280;47397;48.194;11.632;2022-11-20T00:46:32;95425.50;;;6.09
61595;BMP280;47397;48.194;11.632;2022-11-20T00:47:33;95421.31;;;6.06
61595;BMP280;47397;48.194;11.632;2022-11-20T00:48:34;95423.03;;;6.04
61595;BMP280;47397;48.194;11.632;2022-11-20T00:49:34;95424.72;;;6.04
61595;BMP280;47397;48.194;11.632;2022-11-20T00:50:35;95430.66;;;6.01
61595;BMP280;47397;48.194;11.632;2022-11-20T00:51:35;95421.38;;;6.03
61595;BMP280;47397;48.194;11.632;2022-11-20T00:52:36;95428.06;;;6.06
61595;BMP280;47397;48.194;11.632;2022-11-20T00:53:36;95423.88;;;6.05
61595;BMP280;47397;48.194;11.632;2022-11-20T00:54:37;95424.84;;;5.96
61595;BMP280;47397;48.194;11.632;2022-11-20T00:55:37;95427.28;;;6.01
61595;BMP280;47397;48.194;11.632;2022-11-20T00:56:37;95423.88;;;6.05
61595;BMP280;47397;48.194;11.632;2022-11-20T00:57:38;95424.78;;;5.99
61595;BMP280;47397;48.194;11.632;2022-11-20T00:58:39;95423.88;;;6.05
61595;BMP280;47397;48.194;11.632;2022-11-20T00:59:40;95429.03;;;5.94
61595;BMP280;47397;48.194;11.632;2022-11-20T01:00:41;95435.78;;;5.93
61595;BMP280;47397;48.194;11.632;2022-11-20T01:01:42;95434.09;;;5.94
61595;BMP280;47397;48.194;11.632;2022-11-20T01:02:43;95433.25;;;5.93
61595;BMP280;47397;48.194;11.632;2022-11-20T01:03:45;95430.66;;;6.01
61595;BMP280;47397;48.194;11.632;2022-11-20T01:04:45;95433.91;;;6.09
61595;BMP280;47397;48.194;11.632;2022-11-20T01:05:46;95428.84;;;6.09
61595;BMP280;47397;48.194;11.632;2022-11-20T01:06:46;95433.94;;;6.06
61595;BMP280;47397;48.194;11.632;2022-11-20T01:07:47;95433.19;;;6.00
61595;BMP280;47397;48.194;11.632;2022-11-20T01:08:48;95431.47;;;6.03
61595;BMP280;47397;48.194;11.632;2022-11-20T01:09:49;95438.19;;;6.03
61595;BMP280;47397;48.194;11.632;2022-11-20T01:10:49;95433.91;;;6.09
61595;BMP280;47397;48.194;11.632;2022-11-20T01:11:50;95438.22;;;6.01
61595;BMP280;47397;48.194;11.632;2022-11-20T01:12:50;95435.78;;;5.93
61595;BMP280;47397;48.194;11.632;2022-11-20T01:13:52;95436.63;;;5.95
61595;BMP280;47397;48.194;11.632;2022-11-20T01:14:52;95437.50;;;5.88
61595;BMP280;47397;48.194;11.632;2022-11-20T01:15:53;95435.88;;;5.84
61595;BMP280;47397;48.194;11.632;2022-11-20T01:16:55;95439.97;;;5.94
61595;BMP280;47397;48.194;11.632;2022-11-20T01:17:55;95438.25;;;5.98
61595;BMP280;47397;48.194;11.632;2022-11-20T01:18:57;95438.97;;;6.06
61595;BMP280;47397;48.194;11.632;2022-11-20T01:19:58;95440.75;;;6.01
61595;BMP280;47397;48.194;11.632;2022-11-20T01:21:03;95438.25;;;5.98
61595;BMP280;47397;48.194;11.632;2022-11-20T01:22:04;95443.19;;;6.07
61595;BMP280;47397;48.194;11.632;2022-11-20T01:23:04;95439.88;;;6.02
61595;BMP280;47397;48.194;11.632;2022-11-20T01:24:06;95443.19;;;6.07
61595;BMP280;47397;48.194;11.632;2022-11-20T01:25:08;95447.56;;;5.91
61595;BMP280;47397;48.194;11.632;2022-11-20T01:26:10;95443.38;;;5.89
61595;BMP280;47397;48.194;11.632;2022-11-20T01:27:11;95450.06;;;5.93
61595;BMP280;47397;48.194;11.632;2022-11-20T01:28:11;95446.72;;;5.92
61595;BMP280;47397;48.194;11.632;2022-11-20T01:29:14;95445.78;;;6.01
61595;BMP280;47397;48.194;11.632;2022-11-20T01:30:15;95439.84;;;6.05
61595;BMP280;47397;48.194;11.632;2022-11-20T01:31:16;95447.47;;;6.01
61595;BMP280;47397;48.194;11.632;2022-11-20T01:32:19;95445.06;;;5.88
61595;BMP280;47397;48.194;11.632;2022-11-20T01:33:19;95444.19;;;5.92
61595;BMP280;47397;48.194;11.632;2022-11-20T01:34:21;95449.97;;;6.02
61595;BMP280;47397;48.194;11.632;2022-11-20T01:35:21;95446.56;;;6.05
61595;BMP280;47397;48.194;11.632;2022-11-20T01:36:23;95448.22;;;6.07
61595;BMP280;47397;48.194;11.632;2022-11-20T01:37:24;95451.66;;;6.02
61595;BMP280;47397;48.194;11.632;2022-11-20T01:38:24;95451.69;;;6.00
61595;BMP280;47397;48.194;11.632;2022-11-20T01:39:26;95447.50;;;5.99
61595;BMP280;47397;48.194;11.632;2022-11-20T01:40:26;95447.44;;;6.02
61595;BMP280;47397;48.194;11.632;2022-11-20T01:41:29;95446.59;;;6.03
61595;BMP280;47397;48.194;11.632;2022-11-20T01:42:29;95447.47;;;6.01
61595;BMP280;47397;48.194;11.632;2022-11-20T01:43:30;95453.34;;;6.01
61595;BMP280;47397;48.194;11.632;2022-11-20T01:44:45;95452.47;;;6.04
61595;BMP280;47397;48.194;11.632;2022-11-20T01:46:01;95453.41;;;5.97
61595;BMP280;47397;48.194;11.632;2022-11-20T01:47:05;95451.66;;;6.03
61595;BMP280;47397;48.194;11.632;2022-11-20T01:48:08;95445.84;;;5.97
61595;BMP280;47397;48.194;11.632;2022-11-20T01:49:13;95451.69;;;6.00
61595;BMP280;47397;48.194;11.632;2022-11-20T01:50:18;95450.03;;;5.99
61595;BMP280;47397;48.194;11.632;2022-11-20T01:51:26;95450.84;;;6.00
61595;BMP280;47397;48.194;11.632;2022-11-20T01:52:31;95447.53;;;5.96
61595;BMP280;47397;48.194;11.632;2022-11-20T01:53:36;95444.09;;;6.02
61595;BMP280;47397;48.194;11.632;2022-11-20T01:54:40;95452.47;;;6.05
61595;BMP280;47397;48.194;11.632;2022-11-20T01:55:45;95445.88;;;5.92
61595;BMP280;47397;48.194;11.632;2022-11-20T01:56:48;95439.16;;;5.92
61595;BMP280;47397;48.194;11.632;2022-11-20T01:57:52;95442.47;;;5.94
61595;BMP280;47397;48.194;11.632;2022-11-20T01:58:55;95443.34;;;5.95
61595;BMP280;47397;48.194;11.632;2022-11-20T02:00:00;95445.75;;;6.03
61595;BMP280;47397;48.194;11.632;2022-11-20T02:01:02;95444.19;;;5.95
61595;BMP280;47397;48.194;11.632;2022-11-20T02:02:03;95440.72;;;6.03
61595;BMP280;47397;48.194;11.632;2022-11-20T02:03:07;95444.09;;;6.02
61595;BMP280;47397;48.194;11.632;2022-11-20T02:04:10;95444.94;;;6.02
61595;BMP280;47397;48.194;11.632;2022-11-20T02:05:17;95443.25;;;6.03
61595;BMP280;47397;48.194;11.632;2022-11-20T02:06:23;95438.22;;;6.01
61595;BMP280;47397;48.194;11.632;2022-11-20T02:07:24;95445.88;;;5.89
61595;BMP280;47397;48.194;11.632;2022-11-20T02:08:24;95446.69;;;5.97
61595;BMP280;47397;48.194;11.632;2022-11-20T02:09:25;95444.06;;;6.03
61595;BMP280;47397;48.194;11.632;2022-11-20T02:10:26;95445.88;;;5.95
61595;BMP280;47397;48.194;11.632;2022-11-20T02:11:27;95444.94;;;6.02
61595;BMP280;47397;48.194;11.632;2022-11-20T02:12:29;95444.25;;;5.86
61595;BMP280;47397;48.194;11.632;2022-11-20T02:13:30;95448.38;;;5.93
61595;BMP280;47397;48.194;11.632;2022-11-20T02:14:30;95442.50;;;5.93
61595;BMP280;47397;48.194;11.632;2022-11-20T02:15:32;95445.88;;;5.95
61595;BMP280;47397;48.194;11.632;2022-11-20T02:16:35;95445.69;;;6.07
61595;BMP280;47397;48.194;11.632;2022-11-20T02:17:35;95443.19;;;6.06
61595;BMP280;47397;48.194;11.632;2022-11-20T02:18:36;95444.88;;;6.05
61595;BMP280;47397;48.194;11.632;2022-11-20T02:19:38;95444.88;;;6.05
61595;BMP280;47397;48.194;11.632;2022-11-20T02:20:40;95444.09;;;6.02
61595;BMP280;47397;48.194;11.632;2022-11-20T02:21:47;95445.06;;;5.91
61595;BMP280;47397;48.194;11.632;2022-11-20T02:22:53;95437.34;;;6.04
61595;BMP280;47397;48.194;11.632;2022-11-20T02:24:02;95436.56;;;5.99
61595;BMP280;47397;48.194;11.632;2022-11-20T02:25:03;95440.84;;;5.90
61595;BMP280;47397;48.194;11.632;2022-11-20T02:26:07;95449.22;;;5.94
61595;BMP280;47397;48.194;11.632;2022-11-20T02:27:10;95449.22;;;5.97
61595;BMP280;47397;48.194;11.632;2022-11-20T02:28:12;95446.66;;;5.99
61595;BMP280;47397;48.194;11.632;2022-11-20T02:29:13;95438.19;;;6.03
61595;BMP280;47397;48.194;11.632;2022-11-20T02:30:15;95444.88;;;6.07
61595;BMP280;47397;48.194;11.632;2022-11-20T02:31:16;95452.53;;;5.99
61595;BMP280;47397;48.194;11.632;2022-11-20T02:32:20;95454.22;;;6.00
61595;BMP280;47397;48.194;11.632;2022-11-20T02:33:21;95443.22;;;6.04
61595;BMP280;47397;48.194;11.632;2022-11-20T02:34:21;95448.31;;;6.01
61595;BMP280;47397;48.194;11.632;2022-11-20T02:35:43;95446.56;;;6.05
61595;BMP280;47397;48.194;11.632;2022-11-20T02:36:44;95452.47;;;6.05
61595;BMP280;47397;48.194;11.632;2022-11-20T02:37:48;95455.13;;;5.93
61595;BMP280;47397;48.194;11.632;2022-11-20T02:38:49;95453.38;;;6.00
61595;BMP280;47397;48.194;11.632;2022-11-20T02:39:51;95452.56;;;5.98
61595;BMP280;47397;48.194;11.632;2022-11-20T02:40:52;95453.41;;;5.97
61595;BMP280;47397;48.194;11.632;2022-11-20T02:41:53;95455.06;;;5.99
61595;BMP280;47397;48.194;11.632;2022-11-20T02:42:54;95455.94;;;5.97
61595;BMP280;47397;48.194;11.632;2022-11-20T02:43:55;95458.50;;;5.90
61595;BMP280;47397;48.194;11.632;2022-11-20T02:44:56;95450.06;;;5.93
61595;BMP280;47397;48.194;11.632;2022-11-20T02:45:56;95457.59;;;5.99
61595;BMP280;47397;48.194;11.632;2022-11-20T02:46:57;95458.44;;;5.98
61595;BMP280;47397;48.194;11.632;2022-11-20T02:47:57;95463.41;;;6.04
61595;BMP280;47397;48.194;11.632;2022-11-20T02:48:58;95458.28;;;6.10
61595;BMP280;47397;48.194;11.632;2022-11-20T02:49:59;95452.38;;;6.10
61595;BMP280;47397;48.194;11.632;2022-11-20T02:50:59;95450.75;;;6.06
61595;BMP280;47397;48.194;11.632;2022-11-20T02:52:00;95447.41;;;6.05
61595;BMP280;47397;48.194;11.632;2022-11-20T02:53:00;95450.78;;;6.04
61595;BMP280;47397;48.194;11.632;2022-11-20T02:54:00;95450.81;;;6.03
61595;BMP280;47397;48.194;11.632;2022-11-20T02:55:03;95448.22;;;6.07
61595;BMP280;47397;48.194;11.632;2022-11-20T02:56:04;95451.50;;;6.12
61595;BMP280;47397;48.194;11.632;2022-11-20T02:57:05;95452.47;;;6.05
61595;BMP280;47397;48.194;11.632;2022-11-20T02:58:05;95450.78;;;6.04
61595;BMP280;47397;48.194;11.632;2022-11-20T02:59:06;95447.44;;;6.04
61595;BMP280;47397;48.194;11.632;2022-11-20T03:00:07;95452.53;;;5.99
61595;BMP280;47397;48.194;11.632;2022-11-20T03:01:08;95448.22;;;6.07
61595;BMP280;47397;48.194;11.632;2022-11-20T03:02:08;95449.88;;;6.10
61595;BMP280;47397;48.194;11.632;2022-11-20T03:03:09;95452.47;;;6.05
61595;BMP280;47397;48.194;11.632;2022-11-20T03:04:09;95444.09;;;6.02
61595;BMP280;47397;48.194;11.632;2022-11-20T03:05:10;95446.59;;;6.03
61595;BMP280;47397;48.194;11.632;2022-11-20T03:06:10;95452.47;;;6.04
61595;BMP280;47397;48.194;11.632;2022-11-20T03:07:11;95449.22;;;5.94
61595;BMP280;47397;48.194;11.632;2022-11-20T03:08:11;95445.84;;;5.93
61595;BMP280;47397;48.194;11.632;2022-11-20T03:09:12;95445.00;;;5.98
61595;BMP280;47397;48.194;11.632;2022-11-20T03:10:14;95445.88;;;5.95
61595;BMP280;47397;48.194;11.632;2022-11-20T03:11:15;95448.28;;;6.03
61595;BMP280;47397;48.194;11.632;2022-11-20T03:12:16;95443.25;;;6.01
61595;BMP280;47397;48.194;11.632;2022-11-20T03:13:16;95448.38;;;5.93
61595;BMP280;47397;48.194;11.632;2022-11-20T03:14:17;95444.16;;;5.97
61595;BMP280;47397;48.194;11.632;2022-11-20T03:15:17;95441.63;;;5.99
61595;BMP280;47397;48.194;11.632;2022-11-20T03:16:20;95447.44;;;6.02
61595;BMP280;47397;48.194;11.632;2022-11-20T03:17:20;95447.50;;;5.99
61595;BMP280;47397;48.194;11.632;2022-11-20T03:18:21;95448.34;;;6.00
61595;BMP280;47397;48.194;11.632;2022-11-20T03:19:21;95444.06;;;6.05
61595;BMP280;47397;48.194;11.632;2022-11-20T03:20:22;95442.44;;;6.01
61595;BMP280;47397;48.194;11.632;2022-11-20T03:21:23;95438.97;;;6.06
61595;BMP280;47397;48.194;11.632;2022-11-20T03:22:23;95440.81;;;5.95
61595;BMP280;47397;48.194;11.632;2022-11-20T03:23:24;95439.13;;;5.97
61595;BMP280;47397;48.194;11.632;2022-11-20T03:24:24;95441.56;;;6.03
61595;BMP280;47397;48.194;11.632;2022-11-20T03:25:26;95444.09;;;6.02
61595;BMP280;47397;48.194;11.632;2022-11-20T03:26:27;95442.44;;;6.01
61595;BMP280;47397;48.194;11.632;2022-11-20T03:27:32;95438.22;;;6.01
61595;BMP280;47397;48.194;11.632;2022-11-20T03:28:32;95441.59;;;6.00
61595;BMP280;47397;48.194;11.632;2022-11-20T03:29:34;95443.28;;;6.00
61595;BMP280;47397;48.194;11.632;2022-11-20T03:30:35;95441.47;;;6.08
61595;BMP280;47397;48.194;11.632;2022-11-20T03:31:38;95451.72;;;5.99
61595;BMP280;47397;48.194;11.632;2022-11-20T03:32:38;95440.75;;;6.01
61595;BMP280;47397;48.194;11.632;2022-11-20T03:33:40;95447.38;;;6.08
61595;BMP280;47397;48.194;11.632;2022-11-20T03:34:40;95441.53;;;6.05
61595;BMP280;47397;48.194;11.632;2022-11-20T03:35:41;95446.69;;;5.94
61595;BMP280;47397;48.194;11.632;2022-11-20T03:36:43;95435.69;;;6.01
61595;BMP280;47397;48.194;11.632;2022-11-20T03:37:44;95439.09;;;5.99
61595;BMP280;47397;48.194;11.632;2022-11-20T03:38:44;95436.56;;;6.00
61595;BMP280;47397;48.194;11.632;2022-11-20T03:39:45;95443.28;;;6.00
61595;BMP280;47397;48.194;11.632;2022-11-20T03:40:46;95441.56;;;6.02
61595;BMP280;47397;48.194;11.632;2022-11-20T03:41:47;95440.75;;;6.01
61595;BMP280;47397;48.194;11.632;2022-11-20T03:42:47;95444.88;;;6.05
61595;BMP280;47397;48.194;11.632;2022-11-20T03:43:48;95436.53;;;6.02
61595;BMP280;47397;48.194;11.632;2022-11-20T03:44:49;95440.75;;;6.00
61595;BMP280;47397;48.194;11.632;2022-11-20T03:45:49;95432.41;;;5.94
61595;BMP280;47397;48.194;11.632;2022-11-20T03:46:50;95439.16;;;5.91
61595;BMP280;47397;48.194;11.632;2022-11-20T03:47:50;95435.75;;;5.98
61595;BMP280;47397;48.194;11.632;2022-11-20T03:48:51;95439.16;;;5.91
61595;BMP280;47397;48.194;11.632;2022-11-20T03:49:52;95439.19;;;5.86
61595;BMP280;47397;48.194;11.632;2022-11-20T03:50:53;95437.44;;;5.98
61595;BMP280;47397;48.194;11.632;2022-11-20T03:51:53;95440.81;;;5.97
61595;BMP280;47397;48.194;11.632;2022-11-20T03:52:54;95439.88;;;6.04
61595;BMP280;47397;48.194;11.632;2022-11-20T03:53:57;95438.13;;;6.07
61595;BMP280;47397;48.194;11.632;2022-11-20T03:54:58;95435.69;;;6.03
61595;BMP280;47397;48.194;11.632;2022-11-20T03:55:59;95439.84;;;6.05
61595;BMP280;47397;48.194;11.632;2022-11-20T03:57:00;95441.56;;;6.02
61595;BMP280;47397;48.194;11.632;2022-11-20T03:58:00;95444.94;;;6.02
61595;BMP280;47397;48.194;11.632;2022-11-20T03:59:01;95449.16;;;6.00
61595;BMP280;47397;48.194;11.632;2022-11-20T04:00:02;95445.00;;;5.94
61595;BMP280;47397;48.194;11.632;2022-11-20T04:01:07;95445.81;;;5.98
61595;BMP280;47397;48.194;11.632;2022-11-20T04:02:07;95442.44;;;6.01
61595;BMP280;47397;48.194;11.632;2022-11-20T04:03:07;95443.31;;;5.98
61595;BMP280;47397;48.194;11.632;2022-11-20T04:04:08;95444.22;;;5.91
61595;BMP280;47397;48.194;11.632;2022-11-20T04:05:08;95445.88;;;5.89
61595;BMP280;47397;48.194;11.632;2022-11-20T04:06:10;95448.47;;;5.86
61595;BMP280;47397;48.194;11.632;2022-11-20T04:07:11;95450.91;;;5.93
61595;BMP280;47397;48.194;11.632;2022-11-20T04:08:12;95446.66;;;5.99
61595;BMP280;47397;48.194;11.632;2022-11-20T04:09:13;95449.22;;;5.94
61595;BMP280;47397;48.194;11.632;2022-11-20T04:10:13;95447.59;;;5.88
61595;BMP280;47397;48.194;11.632;2022-11-20T04:11:16;95450.13;;;5.87
61595;BMP280;47397;48.194;11.632;2022-11-20T04:12:17;95453.47;;;5.87
61595;BMP280;47397;48.194;11.632;2022-11-20T04:13:17;95445.94;;;5.84
61595;BMP280;47397;48.194;11.632;2022-11-20T04:14:18;95450.06;;;5.93
61595;BMP280;47397;48.194;11.632;2022-11-20T04:15:18;95450.09;;;5.91
61595;BMP280;47397;48.194;11.632;2022-11-20T04:16:19;95450.06;;;5.94
61595;BMP280;47397;48.194;11.632;2022-11-20T04:17:20;95449.22;;;5.95
61595;BMP280;47397;48.194;11.632;2022-11-20T04:18:21;95457.59;;;5.99
61595;BMP280;47397;48.194;11.632;2022-11-20T04:19:21;95451.84;;;5.85
61595;BMP280;47397;48.194;11.632;2022-11-20T04:20:22;95450.13;;;5.87
61595;BMP280;47397;48.194;11.632;2022-11-20T04:21:23;95447.53;;;5.96
61595;BMP280;47397;48.194;11.632;2022-11-20T04:22:23;95447.53;;;5.96
61595;BMP280;47397;48.194;11.632;2022-11-20T04:23:24;95456.81;;;5.91
61595;BMP280;47397;48.194;11.632;2022-11-20T04:24:26;95452.63;;;5.88
61595;BMP280;47397;48.194;11.632;2022-11-20T04:25:26;95450.06;;;5.96
61595;BMP280;47397;48.194;11.632;2022-11-20T04:26:29;95453.44;;;5.95
61595;BMP280;47397;48.194;11.632;2022-11-20T04:27:30;95447.56;;;5.93
61595;BMP280;47397;48.194;11.632;2022-11-20T04:28:31;95447.50;;;5.98
61595;BMP280;47397;48.194;11.632;2022-11-20T04:29:31;95450.91;;;5.95
61595;BMP280;47397;48.194;11.632;2022-11-20T04:30:32;95449.28;;;5.89
61595;BMP280;47397;48.194;11.632;2022-11-20T04:31:33;95445.81;;;5.98
61595;BMP280;47397;48.194;11.632;2022-11-20T04:32:34;95455.88;;;6.01
61595;BMP280;47397;48.194;11.632;2022-11-20T04:33:35;95452.47;;;6.05
61595;BMP280;47397;48.194;11.632;2022-11-20T04:34:36;95453.38;;;6.00
61595;BMP280;47397;48.194;11.632;2022-11-20T04:35:37;95454.25;;;5.97
61595;BMP280;47397;48.194;11.632;2022-11-20T04:36:37;95456.78;;;5.97
61595;BMP280;47397;48.194;11.632;2022-11-20T04:37:38;95453.47;;;5.87
61595;BMP280;47397;48.194;11.632;2022-11-20T04:38:38;95451.78;;;5.91
61595;BMP280;47397;48.194;11.632;2022-11-20T04:39:39;95456.78;;;5.94
61595;BMP280;47397;48.194;11.632;2022-11-20T04:40:39;95455.94;;;5.93
61595;BMP280;47397;48.194;11.632;2022-11-20T04:41:41;95453.44;;;5.95
61595;BMP280;47397;48.194;11.632;2022-11-20T04:42:42;95454.25;;;5.97
61595;BMP280;47397;48.194;11.632;2022-11-20T04:43:46;95443.28;;;6.00
61595;BMP280;47397;48.194;11.632;2022-11-20T04:44:46;95449.22;;;5.94
61595;BMP280;47397;48.194;11.632;2022-11-20T04:45:50;95451.75;;;5.92
61595;BMP280;47397;48.194;11.632;2022-11-20T04:46:50;95447.44;;;6.04
61595;BMP280;47397;48.194;11.632;2022-11-20T04:47:51;95448.25;;;6.04
61595;BMP280;47397;48.194;11.632;2022-11-20T04:48:52;95450.03;;;5.98
61595;BMP280;47397;48.194;11.632;2022-11-20T04:49:52;95454.28;;;5.92
61595;BMP280;47397;48.194;11.632;2022-11-20T04:50:53;95449.25;;;5.92
61595;BMP280;47397;48.194;11.632;2022-11-20T04:51:54;95449.28;;;5.89
61595;BMP280;47397;48.194;11.632;2022-11-20T04:52:54;95450.06;;;5.93
61595;BMP280;47397;48.194;11.632;2022-11-20T04:53:55;95451.78;;;5.91
61595;BMP280;47397;48.194;11.632;2022-11-20T04:54:55;95456.03;;;5.84
61595;BMP280;47397;48.194;11.632;2022-11-20T04:55:59;95453.47;;;5.87
61595;BMP280;47397;48.194;11.632;2022-11-20T04:57:01;95447.63;;;5.85
61595;BMP280;47397;48.194;11.632;2022-11-20T04:58:01;95450.97;;;5.86
61595;BMP280;47397;48.194;11.632;2022-11-20T04:59:02;95448.41;;;5.92
61595;BMP280;47397;48.194;11.632;2022-11-20T05:00:03;95449.28;;;5.89
61595;BMP280;47397;48.194;11.632;2022-11-20T05:01:06;95450.94;;;5.89
61595;BMP280;47397;48.194;11.632;2022-11-20T05:02:06;95450.94;;;5.89
61595;BMP280;47397;48.194;11.632;2022-11-20T05:03:07;95450.16;;;5.85
61595;BMP280;47397;48.194;11.632;2022-11-20T05:04:08;95455.16;;;5.90
61595;BMP280;47397;48.194;11.632;2022-11-20T05:05:08;95451.84;;;5.85
61595;BMP280;47397;48.194;11.632;2022-11-20T05:06:10;95455.22;;;5.84
61595;BMP280;47397;48.194;11.632;2022-11-20T05:07:11;95448.50;;;5.83
61595;BMP280;47397;48.194;11.632;2022-11-20T05:08:11;95447.59;;;5.87
61595;BMP280;47397;48.194;11.632;2022-11-20T05:09:12;95445.84;;;5.93
61595;BMP280;47397;48.194;11.632;2022-11-20T05:10:13;95450.16;;;5.85
61595;BMP280;47397;48.194;11.632;2022-11-20T05:11:16;95444.25;;;5.86
61595;BMP280;47397;48.194;11.632;2022-11-20T05:12:18;95452.56;;;5.94
61595;BMP280;47397;48.194;11.632;2022-11-20T05:13:18;95452.56;;;5.98
61595;BMP280;47397;48.194;11.632;2022-11-20T05:14:19;95453.44;;;5.93
61595;BMP280;47397;48.194;11.632;2022-11-20T05:15:19;95449.28;;;5.88
61595;BMP280;47397;48.194;11.632;2022-11-20T05:16:21;95450.97;;;5.87
61595;BMP280;47397;48.194;11.632;2022-11-20T05:17:22;95450.94;;;5.90
61595;BMP280;47397;48.194;11.632;2022-11-20T05:18:22;95446.75;;;5.91
61595;BMP280;47397;48.194;11.632;2022-11-20T05:19:22;95451.88;;;5.82
61595;BMP280;47397;48.194;11.632;2022-11-20T05:20:23;95448.41;;;5.89
61595;BMP280;47397;48.194;11.632;2022-11-20T05:21:23;95449.28;;;5.88
61595;BMP280;47397;48.194;11.632;2022-11-20T05:22:24;95449.34;;;5.83
61595;BMP280;47397;48.194;11.632;2022-11-20T05:23:24;95452.69;;;5.84
61595;BMP280;47397;48.194;11.632;2022-11-20T05:24:25;95454.31;;;5.89
61595;BMP280;47397;48.194;11.632;2022-11-20T05:25:25;95450.09;;;5.91
61595;BMP280;47397;48.194;11.632;2022-11-20T05:26:26;95450.97;;;5.86
61595;BMP280;47397;48.194;11.632;2022-11-20T05:27:27;95454.34;;;5.86
61595;BMP280;47397;48.194;11.632;2022-11-20T05:28:29;95455.16;;;5.90
61595;BMP280;47397;48.194;11.632;2022-11-20T05:29:30;95455.16;;;5.87
61595;BMP280;47397;48.194;11.632;2022-11-20T05:30:30;95448.47;;;5.86
61595;BMP280;47397;48.194;11.632;2022-11-20T05:31:30;95453.50;;;5.86
61595;BMP280;47397;48.194;11.632;2022-11-20T05:32:31;95449.34;;;5.83
61595;BMP280;47397;48.194;11.632;2022-11-20T05:33:32;95450.16;;;5.84
61595;BMP280;47397;48.194;11.632;2022-11-20T05:34:33;95447.59;;;5.88
61595;BMP280;47397;48.194;11.632;2022-11-20T05:35:33;95455.16;;;5.87
61595;BMP280;47397;48.194;11.632;2022-11-20T05:36:34;95455.13;;;5.93
61595;BMP280;47397;48.194;11.632;2022-11-20T05:37:34;95451.03;;;5.81
61595;BMP280;47397;48.194;11.632;2022-11-20T05:38:35;95456.03;;;5.84
61595;BMP280;47397;48.194;11.632;2022-11-20T05:39:35;95451.94;;;5.77
61595;BMP280;47397;48.194;11.632;2022-11-20T05:40:36;95457.88;;;5.72
61595;BMP280;47397;48.194;11.632;2022-11-20T05:41:36;95447.72;;;5.78
61595;BMP280;47397;48.194;11.632;2022-11-20T05:42:38;95447.69;;;5.81
61595;BMP280;47397;48.194;11.632;2022-11-20T05:43:40;95452.63;;;5.91
61595;BMP280;47397;48.194;11.632;2022-11-20T05:44:41;95454.25;;;5.94
61595;BMP280;47397;48.194;11.632;2022-11-20T05:45:41;95461.09;;;5.83
61595;BMP280;47397;48.194;11.632;2022-11-20T05:46:42;95460.28;;;5.82
61595;BMP280;47397;48.194;11.632;2022-11-20T05:47:42;95458.56;;;5.84
61595;BMP280;47397;48.194;11.632;2022-11-20T05:48:44;95456.19;;;5.74
61595;BMP280;47397;48.194;11.632;2022-11-20T05:49:44;95458.66;;;5.78
61595;BMP280;47397;48.194;11.632;2022-11-20T05:50:45;95454.50;;;5.73
61595;BMP280;47397;48.194;11.632;2022-11-20T05:51:45;95459.53;;;5.76
61595;BMP280;47397;48.194;11.632;2022-11-20T05:52:46;95447.69;;;5.79
61595;BMP280;47397;48.194;11.632;2022-11-20T05:53:46;95456.09;;;5.81